Etusivu
METAR-TAF:

METAR-TAF

Lentoasemat :

Ringkøbing-Skjern, Tanska

Leveyspiiri: 56-00N, Pituuspiiri: 008-21E, korkeus merenpinnasta: 5 m

Tämänhetkinen sää

Tämä raportti tehtiin 15 tuntia ja 11 minuuttia sitten, kello 13.50 UTC
Tuuli 4 kn lännestä
Lämpötila 16°C
Kosteus 63%
Ilmanpaine 1021 hPa
Näkyvyys 10 km tai enemmän
Muutamia pilviä 2000 ft:n korkeudessa

METAR: EKVJ 221350Z 26004KT 9999 FEW020 16/09 Q1021

Aika: 07:01 (05:01 UTC)

Sääennuste

Tämä raportti tehtiin 20 tuntia ja 0 minuuttia sitten, kello 09.01 UTC
Ennuste voimassa 22. päivästä klo 09 UTC - 22. päivään klo 15 UTC
Tuuli 6 kn lännestä
Näkyvyys 10 km tai enemmän
Muutamia pilviä 3000 ft:n korkeudessa

TAF: EKVJ 220901Z 2209/2215 27006KT 9999 FEW030

Säähavainnot ja -ennusteet yli 4000 lentoasemalta (METAR- ja TAF-raportit).

Käytössä olevat sääasemat on merkitty karttaan keltaisilla ja punaisilla pisteillä.

Aseta hiiri pisteen päälle nähdäksesi sääaseman nimen.

Klikkaa sitten nähdäksesi säähavainnot ja -ennusteet.

Kartan vaihtaminen: klikkaa mustalla rastilla varustettuja vihreitä pisteitä, niin voit zoomata sisään; viivalla varustettua vihreää pistettä, niin voit zoomata ulos tai vihreitä nuolia, niin pääset viereisille kartoille.


METAR-TAF: